createdAt,value
2023-01-10T00:01:53.681Z,8.10
2023-01-10T00:04:22.039Z,8.82
2023-01-10T00:06:50.406Z,8.94
2023-01-10T00:09:18.713Z,8.97
2023-01-10T00:12:04.392Z,9.33
2023-01-10T00:14:35.361Z,9.14
2023-01-10T00:17:04.106Z,8.82
2023-01-10T00:19:32.644Z,9.25
2023-01-10T00:22:13.871Z,8.88
2023-01-10T00:24:43.102Z,8.54
2023-01-10T00:27:17.259Z,8.08
2023-01-10T00:29:47.086Z,8.34
2023-01-10T00:32:15.389Z,8.48
2023-01-10T00:34:43.781Z,8.36
2023-01-10T00:37:12.070Z,8.40
2023-01-10T00:39:40.327Z,8.38
2023-01-10T00:42:26.207Z,8.53
2023-01-10T00:44:55.971Z,8.75
2023-01-10T00:47:24.271Z,9.39
2023-01-10T00:49:52.534Z,9.46
2023-01-10T00:52:20.860Z,9.18
2023-01-10T00:54:49.168Z,9.36
2023-01-10T00:57:17.473Z,9.14
2023-01-10T00:59:45.728Z,9.04
2023-01-10T01:02:15.546Z,8.99
2023-01-10T01:04:43.966Z,9.06
2023-01-10T01:07:12.249Z,9.30
2023-01-10T01:10:00.557Z,9.11
2023-01-10T01:12:28.917Z,8.62
2023-01-10T01:14:57.179Z,8.38
2023-01-10T01:17:26.873Z,8.45
2023-01-10T01:19:55.163Z,8.64
2023-01-10T01:22:23.562Z,8.60
2023-01-10T01:24:51.932Z,9.41
2023-01-10T01:27:21.120Z,9.40
2023-01-10T01:29:49.510Z,9.19
2023-01-10T01:32:17.929Z,9.21
2023-01-10T01:34:47.588Z,9.02
2023-01-10T01:37:16.467Z,8.97
2023-01-10T01:39:46.673Z,8.95
2023-01-10T01:42:23.756Z,8.97
2023-01-10T01:45:33.699Z,9.05
2023-01-10T01:48:10.854Z,8.83
2023-01-10T01:50:45.561Z,8.83
2023-01-10T01:53:18.248Z,9.00
2023-01-10T01:55:47.809Z,9.15
2023-01-10T01:58:19.935Z,8.26
2023-01-10T02:00:48.297Z,9.08
2023-01-10T02:03:16.841Z,9.07
2023-01-10T02:05:47.038Z,9.16
2023-01-10T02:08:15.729Z,9.27
2023-01-10T02:10:52.835Z,9.71
2023-01-10T02:13:24.591Z,9.70
2023-01-10T02:15:53.037Z,9.75
2023-01-10T02:18:22.326Z,10.04
2023-01-10T02:21:07.613Z,10.08
2023-01-10T02:24:17.420Z,9.97
2023-01-10T02:27:06.699Z,10.28
2023-01-10T02:30:15.374Z,10.45
2023-01-10T02:33:04.258Z,10.52
2023-01-10T02:36:03.790Z,10.63
2023-01-10T02:38:43.588Z,10.40
2023-01-10T02:41:19.678Z,9.99
2023-01-10T02:43:52.809Z,9.41
2023-01-10T02:46:27.725Z,10.47
2023-01-10T02:48:57.894Z,10.03
2023-01-10T02:51:28.572Z,10.46
2023-01-10T02:54:02.274Z,10.65
2023-01-10T02:56:51.075Z,10.41
2023-01-10T02:59:52.258Z,10.20
2023-01-10T03:02:32.178Z,10.24
2023-01-10T03:05:08.506Z,10.65
2023-01-10T03:07:42.751Z,9.93
2023-01-10T03:10:16.059Z,10.50
2023-01-10T03:12:55.435Z,10.46
2023-01-10T03:15:26.032Z,10.44
2023-01-10T03:17:59.537Z,10.58
2023-01-10T03:20:34.112Z,10.65
2023-01-10T03:23:06.342Z,10.36
2023-01-10T03:25:38.156Z,10.37
2023-01-10T03:28:09.203Z,10.30
2023-01-10T03:30:43.125Z,10.55
2023-01-10T03:33:13.899Z,10.35
2023-01-10T03:35:52.253Z,10.59
2023-01-10T03:38:27.907Z,10.67
2023-01-10T03:41:03.077Z,10.30
2023-01-10T03:43:58.799Z,10.26
2023-01-10T03:46:33.750Z,10.40
2023-01-10T03:49:05.227Z,10.05
2023-01-10T03:51:37.632Z,9.84
2023-01-10T03:54:06.569Z,10.08
2023-01-10T03:56:45.571Z,10.39
2023-01-10T03:59:14.106Z,10.49
2023-01-10T04:01:42.545Z,10.56
2023-01-10T04:04:11.700Z,10.60
2023-01-10T04:06:42.085Z,10.69
2023-01-10T04:09:10.919Z,10.48
2023-01-10T04:11:39.529Z,10.75
2023-01-10T04:14:07.987Z,10.74
2023-01-10T04:16:36.396Z,10.78
2023-01-10T04:19:04.766Z,10.23
2023-01-10T04:21:33.121Z,9.63
2023-01-10T04:24:02.800Z,10.04
2023-01-10T04:26:31.183Z,10.31
2023-01-10T04:28:59.516Z,10.41
2023-01-10T04:31:28.042Z,10.58
2023-01-10T04:33:56.374Z,10.17
2023-01-10T04:36:24.635Z,10.68
2023-01-10T04:38:53.012Z,10.59
2023-01-10T04:41:22.705Z,10.66
2023-01-10T04:43:51.012Z,10.57
2023-01-10T04:46:19.329Z,10.31
2023-01-10T04:48:47.706Z,10.57
2023-01-10T04:51:16.081Z,10.53
2023-01-10T04:53:44.337Z,10.62
2023-01-10T04:56:18.062Z,10.71
2023-01-10T04:58:48.674Z,10.78
2023-01-10T05:01:20.431Z,10.15
2023-01-10T05:03:49.290Z,9.91
2023-01-10T05:06:17.993Z,9.90
2023-01-10T05:08:46.427Z,10.16
2023-01-10T05:11:15.010Z,10.29
2023-01-10T05:13:43.407Z,10.55
2023-01-10T05:16:13.169Z,10.69
2023-01-10T05:18:41.511Z,10.71
2023-01-10T05:21:11.397Z,10.20
2023-01-10T05:23:40.465Z,10.32
2023-01-10T05:26:10.366Z,10.47
2023-01-10T05:28:39.166Z,10.58
2023-01-10T05:31:07.888Z,10.39
2023-01-10T05:33:38.076Z,10.70
2023-01-10T05:36:08.053Z,10.71
2023-01-10T05:38:36.354Z,10.56
2023-01-10T05:41:04.732Z,10.38
2023-01-10T05:43:33.112Z,10.54
2023-01-10T05:46:19.736Z,10.65
2023-01-10T05:48:49.384Z,10.71
2023-01-10T05:51:17.691Z,10.80
2023-01-10T05:53:46.160Z,10.68
2023-01-10T05:56:14.457Z,10.79
2023-01-10T05:58:44.259Z,10.94
2023-01-10T06:01:12.769Z,10.44
2023-01-10T06:03:40.984Z,9.90
2023-01-10T06:06:10.779Z,10.19
2023-01-10T06:08:39.180Z,10.51
2023-01-10T06:11:07.884Z,10.27
2023-01-10T06:13:36.251Z,10.70
2023-01-10T06:16:05.181Z,10.78
2023-01-10T06:18:33.441Z,10.71
2023-01-10T06:21:01.699Z,10.69
2023-01-10T06:23:31.526Z,10.54
2023-01-10T06:25:59.802Z,10.09
2023-01-10T06:28:28.077Z,10.17
2023-01-10T06:30:56.448Z,10.42
2023-01-10T06:33:24.824Z,10.40
2023-01-10T06:35:53.193Z,10.69
2023-01-10T06:38:21.575Z,10.71
2023-01-10T06:40:51.867Z,10.80
2023-01-10T06:43:20.185Z,10.65
2023-01-10T06:45:48.514Z,10.76
2023-01-10T06:48:16.908Z,10.85
2023-01-10T06:50:45.181Z,10.59
2023-01-10T06:53:13.444Z,10.65
2023-01-10T06:55:41.775Z,10.69
2023-01-10T06:58:11.468Z,10.66
2023-01-10T07:00:40.580Z,10.62
2023-01-10T07:03:10.716Z,10.15
2023-01-10T07:05:39.048Z,10.66
2023-01-10T07:08:07.349Z,10.56
2023-01-10T07:10:35.752Z,10.61
2023-01-10T07:13:04.012Z,10.66
2023-01-10T07:15:33.737Z,10.52
2023-01-10T07:18:02.125Z,10.43
2023-01-10T07:20:30.441Z,10.52
2023-01-10T07:23:00.441Z,10.66
2023-01-10T07:25:30.455Z,10.91
2023-01-10T07:27:58.840Z,10.22
2023-01-10T07:30:27.210Z,9.67
2023-01-10T07:32:57.811Z,9.67
2023-01-10T07:35:27.019Z,9.72
2023-01-10T07:37:55.526Z,9.78
2023-01-10T07:40:23.807Z,10.23
2023-01-10T07:42:56.909Z,9.99
2023-01-10T07:45:27.136Z,9.84
2023-01-10T07:47:59.349Z,9.31
2023-01-10T07:50:29.150Z,9.64
2023-01-10T07:52:57.848Z,10.01
2023-01-10T07:55:27.490Z,9.86
2023-01-10T07:57:56.439Z,9.66
2023-01-10T08:00:25.070Z,10.23
2023-01-10T08:02:55.416Z,9.85
2023-01-10T08:05:25.426Z,9.87
2023-01-10T08:07:55.393Z,9.86
2023-01-10T08:10:23.670Z,9.78
2023-01-10T08:12:51.980Z,9.58
2023-01-10T08:15:20.238Z,9.35
2023-01-10T08:17:48.529Z,9.25
2023-01-10T08:20:17.314Z,9.26
2023-01-10T08:22:47.139Z,9.31
2023-01-10T08:25:15.509Z,9.47
2023-01-10T08:27:43.839Z,9.47
2023-01-10T08:30:13.285Z,9.57
2023-01-10T08:32:41.632Z,9.22
2023-01-10T08:35:10.703Z,9.16
2023-01-10T08:37:38.902Z,8.78
2023-01-10T08:40:10.218Z,9.02
2023-01-10T08:42:38.473Z,9.05
2023-01-10T08:45:07.877Z,9.21
2023-01-10T08:47:36.243Z,8.82
2023-01-10T08:50:05.924Z,8.69
2023-01-10T08:52:35.424Z,8.25
2023-01-10T08:55:03.639Z,8.40
2023-01-10T08:57:33.629Z,8.61
2023-01-10T09:00:02.020Z,8.81
2023-01-10T09:02:30.497Z,8.90
2023-01-10T09:04:58.855Z,8.48
2023-01-10T09:07:28.581Z,9.35
2023-01-10T09:09:56.939Z,9.69
2023-01-10T09:12:42.312Z,9.10
2023-01-10T09:15:12.880Z,8.99
2023-01-10T09:17:41.181Z,9.31
2023-01-10T09:20:10.971Z,9.13
2023-01-10T09:22:39.314Z,9.45
2023-01-10T09:25:08.746Z,9.55
2023-01-10T09:27:37.103Z,9.38
2023-01-10T09:30:06.232Z,9.56
2023-01-10T09:32:35.990Z,9.55
2023-01-10T09:35:04.292Z,9.50
2023-01-10T09:37:33.862Z,8.95
2023-01-10T09:40:02.459Z,8.78
2023-01-10T09:42:54.922Z,9.44
2023-01-10T09:45:32.721Z,9.92
2023-01-10T09:48:08.217Z,10.02
2023-01-10T09:50:45.578Z,9.67
2023-01-10T09:53:17.622Z,9.41
2023-01-10T09:55:49.915Z,9.14
2023-01-10T09:58:21.344Z,9.06
2023-01-10T10:00:54.197Z,9.47
2023-01-10T10:03:31.451Z,9.77
2023-01-10T10:06:11.152Z,10.06
2023-01-10T10:08:41.084Z,10.12
2023-01-10T10:11:27.248Z,10.02
2023-01-10T10:14:03.691Z,10.00
2023-01-10T10:16:42.455Z,10.29
2023-01-10T10:19:22.025Z,10.46
2023-01-10T10:22:00.073Z,10.48
2023-01-10T10:24:43.628Z,10.42
2023-01-10T10:27:22.919Z,10.38
2023-01-10T10:30:05.992Z,10.37
2023-01-10T10:33:10.914Z,10.32
2023-01-10T10:35:44.836Z,10.40
2023-01-10T10:38:18.942Z,10.47
2023-01-10T10:40:50.051Z,10.42
2023-01-10T10:43:22.126Z,10.38
2023-01-10T10:45:55.666Z,10.49
2023-01-10T10:48:28.497Z,10.11
2023-01-10T10:51:09.955Z,10.55
2023-01-10T10:53:38.637Z,10.47
2023-01-10T10:56:13.034Z,10.61
2023-01-10T10:58:43.457Z,10.35
2023-01-10T11:01:14.663Z,10.48
2023-01-10T11:03:48.455Z,10.23
2023-01-10T11:06:19.447Z,10.16
2023-01-10T11:08:51.985Z,10.15
2023-01-10T11:11:25.901Z,10.47
2023-01-10T11:13:57.023Z,10.24
2023-01-10T11:16:31.170Z,10.38
2023-01-10T11:19:21.560Z,10.69
2023-01-10T11:21:55.431Z,10.44
2023-01-10T11:24:28.789Z,10.69
2023-01-10T11:26:58.039Z,10.60
2023-01-10T11:29:30.151Z,10.12
2023-01-10T11:31:58.904Z,10.45
2023-01-10T11:34:30.775Z,10.34
2023-01-10T11:37:03.146Z,9.75
2023-01-10T11:39:33.402Z,10.37
2023-01-10T11:42:29.792Z,10.26
2023-01-10T11:45:23.133Z,10.34
2023-01-10T11:47:56.432Z,10.43
2023-01-10T11:50:27.184Z,10.66
2023-01-10T11:52:58.237Z,10.76
2023-01-10T11:55:28.991Z,10.60
2023-01-10T11:58:04.268Z,10.54
2023-01-10T12:00:36.353Z,10.21
2023-01-10T12:03:15.837Z,10.99
2023-01-10T12:05:52.210Z,11.07
2023-01-10T12:08:28.383Z,11.04
2023-01-10T12:11:08.614Z,11.00
2023-01-10T12:13:47.970Z,10.70
2023-01-10T12:16:22.327Z,10.78
2023-01-10T12:18:52.409Z,10.91
2023-01-10T12:21:27.246Z,11.15
2023-01-10T12:24:00.897Z,11.36
2023-01-10T12:26:32.950Z,11.25
2023-01-10T12:29:07.208Z,11.43
2023-01-10T12:31:36.960Z,11.20
2023-01-10T12:34:14.611Z,10.89
2023-01-10T12:36:50.853Z,11.15
2023-01-10T12:39:24.399Z,11.20
2023-01-10T12:42:21.607Z,11.14
2023-01-10T12:44:55.983Z,10.93
2023-01-10T12:47:31.985Z,10.64
2023-01-10T12:50:05.034Z,10.94
2023-01-10T12:52:42.871Z,10.88
2023-01-10T12:55:16.869Z,10.72
2023-01-10T12:57:51.893Z,10.84
2023-01-10T13:00:25.577Z,10.56
2023-01-10T13:02:57.063Z,10.70
2023-01-10T13:05:27.351Z,10.72
2023-01-10T13:08:00.386Z,10.61
2023-01-10T13:10:30.586Z,10.87
2023-01-10T13:13:05.521Z,10.70
2023-01-10T13:15:39.320Z,10.62
2023-01-10T13:18:19.299Z,10.62
2023-01-10T13:20:47.618Z,10.52
2023-01-10T13:23:23.963Z,10.57
2023-01-10T13:25:59.487Z,10.75
2023-01-10T13:28:29.968Z,10.85
2023-01-10T13:31:01.382Z,10.46
2023-01-10T13:33:31.428Z,10.79
2023-01-10T13:36:10.680Z,10.84
2023-01-10T13:38:49.907Z,10.60
2023-01-10T13:41:37.580Z,10.63
2023-01-10T13:44:10.038Z,10.75
2023-01-10T13:46:47.644Z,10.91
2023-01-10T13:49:46.052Z,10.71
2023-01-10T13:52:32.553Z,10.23
2023-01-10T13:55:03.803Z,10.43
2023-01-10T13:57:54.045Z,10.55
2023-01-10T14:01:02.990Z,10.53
2023-01-10T14:03:50.375Z,10.27
2023-01-10T14:06:42.202Z,10.52
2023-01-10T14:09:46.913Z,10.69
2023-01-10T14:12:26.055Z,9.77
2023-01-10T14:15:00.074Z,9.43
2023-01-10T14:17:30.905Z,9.75
2023-01-10T14:20:04.071Z,9.85
2023-01-10T14:22:34.678Z,10.15
2023-01-10T14:25:05.900Z,10.06
2023-01-10T14:27:44.220Z,10.13
2023-01-10T14:30:22.981Z,10.25
2023-01-10T14:32:53.073Z,9.59
2023-01-10T14:35:25.209Z,10.17
2023-01-10T14:37:57.466Z,9.91
2023-01-10T14:40:35.352Z,9.52
2023-01-10T14:43:08.622Z,9.04
2023-01-10T14:45:45.054Z,9.59
2023-01-10T14:48:24.862Z,9.59
2023-01-10T14:50:53.306Z,9.28
2023-01-10T14:53:29.204Z,9.03
2023-01-10T14:55:58.736Z,9.60
2023-01-10T14:58:26.999Z,10.01
2023-01-10T15:00:57.895Z,9.96
2023-01-10T15:03:27.023Z,10.31
2023-01-10T15:05:58.350Z,10.20
2023-01-10T15:08:28.143Z,9.68
2023-01-10T15:11:00.985Z,8.90
2023-01-10T15:13:31.504Z,9.51
2023-01-10T15:16:02.055Z,9.34
2023-01-10T15:18:36.415Z,9.75
2023-01-10T15:21:05.379Z,9.44
2023-01-10T15:23:38.310Z,8.49
2023-01-10T15:26:11.831Z,9.02
2023-01-10T15:28:40.406Z,8.65
2023-01-10T15:31:11.568Z,8.75
2023-01-10T15:33:44.893Z,8.86
2023-01-10T15:36:16.781Z,9.25
2023-01-10T15:38:47.779Z,9.07
2023-01-10T15:41:20.433Z,9.69
2023-01-10T15:43:50.371Z,9.84
2023-01-10T15:46:22.119Z,9.64
2023-01-10T15:49:03.101Z,9.21
2023-01-10T15:51:35.181Z,9.81
2023-01-10T15:54:05.653Z,9.92
2023-01-10T15:56:38.146Z,9.92
2023-01-10T15:59:20.812Z,9.74
2023-01-10T16:01:57.539Z,9.79
2023-01-10T16:04:26.411Z,9.90
2023-01-10T16:07:06.159Z,9.59
2023-01-10T16:09:35.918Z,9.54
2023-01-10T16:12:20.887Z,9.17
2023-01-10T16:14:49.133Z,9.48
2023-01-10T16:17:18.875Z,9.53
2023-01-10T16:19:47.217Z,9.16
2023-01-10T16:22:20.195Z,9.08
2023-01-10T16:24:50.540Z,9.14
2023-01-10T16:27:18.990Z,9.11
2023-01-10T16:29:47.317Z,9.17
2023-01-10T16:32:16.220Z,9.23
2023-01-10T16:34:45.911Z,9.27
2023-01-10T16:37:14.272Z,9.07
2023-01-10T16:39:42.530Z,8.83
2023-01-10T16:42:28.125Z,9.03
2023-01-10T16:44:56.328Z,9.30
2023-01-10T16:47:24.635Z,9.44
2023-01-10T16:49:54.403Z,9.54
2023-01-10T16:52:22.685Z,9.56
2023-01-10T16:54:50.883Z,9.51
2023-01-10T16:57:19.251Z,9.51
2023-01-10T16:59:47.580Z,9.50
2023-01-10T17:02:19.725Z,9.59
2023-01-10T17:04:48.161Z,9.47
2023-01-10T17:07:17.908Z,9.51
2023-01-10T17:09:46.235Z,9.15
2023-01-10T17:12:19.577Z,8.79
2023-01-10T17:14:48.879Z,9.16
2023-01-10T17:17:17.163Z,9.23
2023-01-10T17:19:47.332Z,9.22
2023-01-10T17:22:17.579Z,9.35
2023-01-10T17:24:46.235Z,9.27
2023-01-10T17:27:14.502Z,8.87
2023-01-10T17:29:43.173Z,8.95
2023-01-10T17:32:11.661Z,9.02
2023-01-10T17:34:40.057Z,9.15
2023-01-10T17:37:08.424Z,9.45
2023-01-10T17:39:39.373Z,9.48
2023-01-10T17:42:08.205Z,9.28
2023-01-10T17:44:36.553Z,9.62
2023-01-10T17:47:05.164Z,9.41
2023-01-10T17:49:33.450Z,9.51
2023-01-10T17:52:01.771Z,9.48
2023-01-10T17:54:30.288Z,9.44
2023-01-10T17:56:59.963Z,9.34
2023-01-10T17:59:28.369Z,9.25
2023-01-10T18:01:56.634Z,9.24
2023-01-10T18:04:25.048Z,9.12
2023-01-10T18:06:53.514Z,9.11
2023-01-10T18:09:21.796Z,9.19
2023-01-10T18:11:50.039Z,9.34
2023-01-10T18:14:38.105Z,9.24
2023-01-10T18:17:09.954Z,9.35
2023-01-10T18:19:38.920Z,9.35
2023-01-10T18:22:28.353Z,8.89
2023-01-10T18:24:57.515Z,9.32
2023-01-10T18:27:27.498Z,9.24
2023-01-10T18:29:57.175Z,9.25
2023-01-10T18:32:26.095Z,9.19
2023-01-10T18:34:55.246Z,8.87
2023-01-10T18:37:23.680Z,8.90
2023-01-10T18:39:51.987Z,8.50
2023-01-10T18:42:20.307Z,8.87
2023-01-10T18:44:48.768Z,9.06
2023-01-10T18:47:18.534Z,8.92
2023-01-10T18:49:47.909Z,8.92
2023-01-10T18:52:16.785Z,8.69
2023-01-10T18:54:45.149Z,8.61
2023-01-10T18:57:13.439Z,8.28
2023-01-10T18:59:41.829Z,8.35
2023-01-10T19:02:12.492Z,8.57
2023-01-10T19:04:42.193Z,8.50
2023-01-10T19:07:10.457Z,8.46
2023-01-10T19:09:38.805Z,8.56
2023-01-10T19:12:07.401Z,8.45
2023-01-10T19:14:35.808Z,7.89
2023-01-10T19:17:04.155Z,7.56
2023-01-10T19:19:32.563Z,8.44
2023-01-10T19:22:02.378Z,8.35
2023-01-10T19:24:32.864Z,7.97
2023-01-10T19:27:01.145Z,7.89
2023-01-10T19:29:30.789Z,7.50
2023-01-10T19:31:59.254Z,7.51
2023-01-10T19:34:27.810Z,7.03
2023-01-10T19:36:56.086Z,6.74
2023-01-10T19:39:25.766Z,6.19
2023-01-10T19:41:54.049Z,6.96
2023-01-10T19:44:22.340Z,7.45
2023-01-10T19:46:50.761Z,7.61
2023-01-10T19:49:19.787Z,7.28
2023-01-10T19:51:51.416Z,6.93
2023-01-10T19:54:20.450Z,6.69
2023-01-10T19:56:51.459Z,6.67
2023-01-10T19:59:20.197Z,6.82
2023-01-10T20:01:51.867Z,6.75
2023-01-10T20:04:23.694Z,6.74
2023-01-10T20:06:55.415Z,7.30
2023-01-10T20:09:25.593Z,6.88
2023-01-10T20:11:55.960Z,7.29
2023-01-10T20:14:25.099Z,7.20
2023-01-10T20:16:53.619Z,7.38
2023-01-10T20:19:22.509Z,7.22
2023-01-10T20:21:51.233Z,6.85
2023-01-10T20:24:21.578Z,7.37
2023-01-10T20:26:51.237Z,7.32
2023-01-10T20:29:21.444Z,7.10
2023-01-10T20:31:53.047Z,6.63
2023-01-10T20:34:24.977Z,6.88
2023-01-10T20:36:54.716Z,6.36
2023-01-10T20:39:28.001Z,6.77
2023-01-10T20:42:00.055Z,6.42
2023-01-10T20:44:31.488Z,6.55
2023-01-10T20:47:00.329Z,6.23
2023-01-10T20:49:28.741Z,7.13
2023-01-10T20:51:58.121Z,7.27
2023-01-10T20:54:27.170Z,7.69
2023-01-10T20:57:00.078Z,6.70
2023-01-10T20:59:30.226Z,7.68
2023-01-10T21:02:00.955Z,6.94
2023-01-10T21:04:30.623Z,6.72
2023-01-10T21:06:59.672Z,7.55
2023-01-10T21:09:28.741Z,7.99
2023-01-10T21:12:10.665Z,8.14
2023-01-10T21:14:49.277Z,8.40
2023-01-10T21:17:17.556Z,8.44
2023-01-10T21:19:45.851Z,8.45
2023-01-10T21:22:14.159Z,8.63
2023-01-10T21:24:42.997Z,8.55
2023-01-10T21:27:12.291Z,7.63
2023-01-10T21:29:40.688Z,7.26
2023-01-10T21:32:10.342Z,7.26
2023-01-10T21:34:39.528Z,7.12
2023-01-10T21:37:07.876Z,7.11
2023-01-10T21:39:36.150Z,7.82
2023-01-10T21:42:30.329Z,8.26
2023-01-10T21:44:58.912Z,8.28
2023-01-10T21:47:28.657Z,8.04
2023-01-10T21:49:56.980Z,7.79
2023-01-10T21:52:25.343Z,8.59
2023-01-10T21:54:53.705Z,8.75
2023-01-10T21:57:23.693Z,8.73
2023-01-10T21:59:52.226Z,8.81
2023-01-10T22:02:24.055Z,8.93
2023-01-10T22:04:54.856Z,9.00
2023-01-10T22:07:24.451Z,8.66
2023-01-10T22:09:53.703Z,8.29
2023-01-10T22:12:23.403Z,8.40
2023-01-10T22:14:51.718Z,8.02
2023-01-10T22:17:20.107Z,8.12
2023-01-10T22:19:48.463Z,7.30
2023-01-10T22:22:19.022Z,7.85
2023-01-10T22:24:48.149Z,8.24
2023-01-10T22:27:17.108Z,8.59
2023-01-10T22:29:45.652Z,8.50
2023-01-10T22:32:13.956Z,8.82
2023-01-10T22:34:42.370Z,8.84
2023-01-10T22:37:11.317Z,8.78
2023-01-10T22:39:41.017Z,8.46
2023-01-10T22:42:09.311Z,8.78
2023-01-10T22:44:37.626Z,8.92
2023-01-10T22:47:06.032Z,9.02
2023-01-10T22:49:34.295Z,8.87
2023-01-10T22:52:02.576Z,9.07
2023-01-10T22:54:30.922Z,8.82
2023-01-10T22:57:00.662Z,8.41
2023-01-10T22:59:28.977Z,7.95
2023-01-10T23:01:57.167Z,7.88
2023-01-10T23:04:25.710Z,7.74
2023-01-10T23:06:56.824Z,7.61
2023-01-10T23:09:25.168Z,7.96
2023-01-10T23:11:53.544Z,7.86
2023-01-10T23:14:23.239Z,8.04
2023-01-10T23:16:51.506Z,7.98
2023-01-10T23:19:19.945Z,7.61
2023-01-10T23:21:48.358Z,8.10
2023-01-10T23:24:16.827Z,7.83
2023-01-10T23:26:45.094Z,7.48
2023-01-10T23:29:13.430Z,7.45
2023-01-10T23:31:43.120Z,7.24
2023-01-10T23:34:11.473Z,7.39
2023-01-10T23:36:39.774Z,7.11
2023-01-10T23:39:07.993Z,6.85
2023-01-10T23:41:36.385Z,6.63
2023-01-10T23:44:04.717Z,6.79
2023-01-10T23:46:32.978Z,6.98
2023-01-10T23:49:03.640Z,7.02
2023-01-10T23:51:32.510Z,6.87
2023-01-10T23:54:00.739Z,6.86
2023-01-10T23:56:29.091Z,6.93
2023-01-10T23:58:58.657Z,6.72
